createdAt,value
2018-03-03T09:18:36.491Z,21.45
2018-03-03T09:21:10.800Z,22.93
2018-03-03T09:23:45.326Z,22.77
2018-03-03T09:26:19.921Z,22.57
2018-03-03T09:28:56.338Z,23.37
2018-03-03T09:31:31.285Z,23.57
2018-03-03T09:34:08.523Z,24.47
2018-03-03T09:36:44.680Z,22.57
2018-03-03T09:39:19.282Z,22.80
2018-03-03T09:41:54.873Z,23.20
2018-03-03T09:44:29.292Z,22.23
2018-03-03T09:47:05.726Z,23.47
2018-03-03T09:49:40.783Z,23.57
2018-03-03T09:52:16.613Z,24.40
2018-03-03T09:54:50.547Z,24.87
2018-03-03T09:57:25.996Z,23.97
2018-03-03T10:00:00.216Z,23.77
2018-03-03T10:02:35.651Z,23.50
2018-03-03T10:05:11.376Z,22.83
2018-03-03T10:07:47.976Z,24.20
2018-03-03T10:10:22.172Z,23.80
2018-03-03T10:12:56.478Z,23.77
2018-03-03T10:15:31.311Z,21.80
2018-03-03T10:18:07.393Z,20.90
2018-03-03T10:20:41.481Z,21.77
2018-03-03T10:23:16.855Z,19.90
2018-03-03T10:25:51.759Z,21.30
2018-03-03T10:28:28.118Z,21.13
2018-03-03T10:31:01.939Z,20.80
2018-03-03T10:33:37.244Z,20.60
2018-03-03T10:36:11.892Z,20.13
2018-03-03T10:38:48.308Z,19.83
2018-03-03T10:41:23.724Z,20.07
2018-03-03T10:43:59.627Z,18.47
2018-03-03T10:46:34.397Z,17.30
2018-03-03T10:49:09.217Z,17.67
2018-03-03T10:51:46.930Z,15.83
2018-03-03T10:54:21.760Z,15.87
2018-03-03T10:56:56.667Z,17.33
2018-03-03T10:59:30.576Z,16.60
2018-03-03T11:02:06.839Z,17.50
2018-03-03T11:04:41.552Z,17.90
2018-03-03T11:07:15.778Z,16.90
2018-03-03T11:09:50.600Z,16.87
2018-03-03T11:12:25.518Z,15.87
2018-03-03T11:14:59.333Z,14.73
2018-03-03T11:17:37.913Z,14.73
2018-03-03T11:20:11.783Z,16.63
2018-03-03T11:22:48.256Z,15.40
2018-03-03T11:25:23.149Z,15.83
2018-03-03T11:27:59.224Z,14.87
2018-03-03T11:30:32.932Z,16.00
2018-03-03T11:33:08.654Z,15.77
2018-03-03T11:35:44.855Z,15.87
2018-03-03T11:38:19.251Z,16.27
2018-03-03T11:40:57.133Z,16.80
2018-03-03T11:43:32.079Z,16.90
2018-03-03T11:46:08.935Z,16.50
2018-03-03T11:48:43.591Z,15.30
2018-03-03T11:51:18.803Z,14.93
2018-03-03T11:53:53.319Z,16.03
2018-03-03T11:56:28.747Z,16.33
2018-03-03T11:59:03.400Z,16.10
2018-03-03T12:01:38.825Z,14.70
2018-03-03T12:04:16.301Z,15.40
2018-03-03T12:06:51.053Z,15.67
2018-03-03T12:09:25.979Z,14.43
2018-03-03T12:12:02.367Z,14.27
2018-03-03T12:14:38.720Z,13.17
2018-03-03T12:17:12.865Z,13.73
2018-03-03T12:19:46.440Z,13.37
2018-03-03T12:22:21.140Z,12.47
2018-03-03T12:24:55.120Z,11.67
2018-03-03T12:27:29.684Z,11.63
2018-03-03T12:30:03.617Z,11.83
2018-03-03T12:32:37.352Z,6.80
2018-03-03T12:35:12.595Z,6.20
2018-03-03T12:37:47.158Z,5.57
2018-03-03T12:40:20.953Z,5.53
2018-03-03T12:42:55.472Z,5.87
2018-03-03T12:45:29.347Z,6.57
2018-03-03T12:48:03.687Z,5.30
2018-03-03T12:50:38.327Z,5.50
2018-03-03T12:53:13.101Z,5.40
2018-03-03T12:55:48.722Z,5.60
2018-03-03T12:58:22.647Z,5.70
2018-03-03T13:00:58.149Z,5.53
2018-03-03T13:03:32.240Z,7.97
2018-03-03T13:06:07.597Z,8.23
2018-03-03T13:08:41.492Z,8.50
2018-03-03T13:11:17.548Z,7.83
2018-03-03T13:13:53.831Z,9.13
2018-03-03T13:16:29.047Z,8.47
2018-03-03T13:19:03.905Z,8.70
2018-03-03T13:21:38.615Z,8.90
2018-03-03T13:24:12.511Z,7.50
2018-03-03T13:26:47.136Z,7.30
2018-03-03T13:29:21.142Z,7.43
2018-03-03T13:31:59.022Z,7.43
2018-03-03T13:34:35.279Z,8.07
2018-03-03T13:37:09.528Z,7.90
2018-03-03T13:39:44.307Z,7.37
2018-03-03T13:42:18.889Z,7.93
2018-03-03T13:44:52.937Z,7.27
2018-03-03T13:47:26.921Z,8.67
2018-03-03T13:50:00.666Z,7.47
2018-03-03T13:52:35.332Z,7.63
2018-03-03T13:55:09.523Z,7.47
2018-03-03T13:57:44.263Z,7.87
2018-03-03T14:00:18.236Z,7.90
2018-03-03T14:02:53.309Z,7.43
2018-03-03T14:05:28.380Z,7.77
2018-03-03T14:08:02.239Z,8.00
2018-03-03T14:10:36.316Z,7.67
2018-03-03T14:13:10.036Z,7.53
2018-03-03T14:15:43.753Z,7.77
2018-03-03T14:18:18.388Z,7.63
2018-03-03T14:20:52.067Z,8.00
2018-03-03T14:23:26.247Z,7.90
2018-03-03T14:26:00.479Z,7.67
2018-03-03T14:28:34.276Z,8.23
2018-03-03T14:31:08.183Z,7.67
2018-03-03T14:33:42.228Z,6.13
2018-03-03T14:36:16.051Z,5.90
2018-03-03T14:38:50.437Z,5.57
2018-03-03T14:41:25.743Z,5.47
2018-03-03T14:44:00.370Z,6.27
2018-03-03T14:46:34.411Z,6.50
2018-03-03T14:49:09.147Z,6.07
2018-03-03T14:51:43.635Z,8.17
2018-03-03T14:54:18.645Z,8.20
2018-03-03T14:56:53.412Z,8.80
2018-03-03T14:59:28.451Z,7.67
2018-03-03T15:02:02.482Z,6.90
2018-03-03T15:04:39.036Z,7.17
2018-03-03T15:07:13.005Z,7.30
2018-03-03T15:09:49.007Z,8.07
2018-03-03T15:12:24.135Z,7.27
2018-03-03T15:14:58.436Z,9.07
2018-03-03T15:17:33.186Z,10.37
2018-03-03T15:20:08.212Z,8.10
2018-03-03T15:22:42.225Z,7.23
2018-03-03T15:25:17.550Z,6.30
2018-03-03T15:27:51.376Z,6.57
2018-03-03T15:30:28.718Z,6.30
2018-03-03T15:33:03.209Z,7.27
2018-03-03T15:35:39.039Z,7.23
2018-03-03T15:38:12.954Z,7.07
2018-03-03T15:40:48.884Z,7.53
2018-03-03T15:43:23.927Z,7.77
2018-03-03T15:45:59.454Z,8.00
2018-03-03T15:48:33.791Z,7.97
2018-03-03T15:51:07.787Z,9.97
2018-03-03T15:53:41.940Z,9.37
2018-03-03T15:56:18.276Z,9.33
2018-03-03T15:58:53.417Z,8.50
2018-03-03T16:01:28.648Z,8.57
2018-03-03T16:04:03.278Z,8.87
2018-03-03T16:06:39.410Z,8.17
2018-03-03T16:09:15.906Z,8.30
2018-03-03T16:11:50.617Z,9.00
2018-03-03T16:14:25.167Z,10.07
2018-03-03T16:16:59.867Z,9.80
2018-03-03T16:19:36.247Z,10.80
2018-03-03T16:22:11.360Z,10.70
2018-03-03T16:24:46.656Z,10.87
2018-03-03T16:27:21.289Z,13.37
2018-03-03T16:29:57.484Z,12.60
2018-03-03T16:32:32.173Z,12.13
2018-03-03T16:35:07.386Z,12.33
2018-03-03T16:37:41.260Z,12.80
2018-03-03T16:40:16.780Z,13.77
2018-03-03T16:42:51.389Z,13.67
2018-03-03T16:45:26.301Z,12.37
2018-03-03T16:48:00.879Z,14.60
2018-03-03T16:50:34.835Z,9.50
2018-03-03T16:53:10.132Z,8.63
2018-03-03T16:55:45.023Z,3.20
2018-03-03T16:58:20.797Z,4.87
2018-03-03T17:00:55.844Z,5.00
2018-03-03T17:03:30.519Z,5.53
2018-03-03T17:06:05.541Z,7.83
2018-03-03T17:08:39.616Z,8.47
2018-03-03T17:11:13.930Z,8.30
2018-03-03T17:13:48.765Z,8.93
2018-03-03T17:16:23.748Z,10.30
2018-03-03T17:18:59.086Z,11.13
2018-03-03T17:21:37.542Z,11.73
2018-03-03T17:24:14.424Z,11.23
2018-03-03T17:26:49.620Z,10.87
2018-03-03T17:29:26.340Z,10.90
2018-03-03T17:32:00.348Z,11.60
2018-03-03T17:34:36.598Z,10.63
2018-03-03T17:37:11.432Z,10.47
2018-03-03T17:39:49.021Z,11.63
2018-03-03T17:42:24.058Z,12.27
2018-03-03T17:44:59.661Z,12.03
2018-03-03T17:47:33.516Z,11.80
2018-03-03T17:50:10.586Z,11.67
2018-03-03T17:52:45.123Z,12.33
2018-03-03T17:55:20.416Z,12.13
2018-03-03T17:57:54.625Z,12.13
2018-03-03T18:00:29.502Z,11.07
2018-03-03T18:03:03.514Z,9.97
2018-03-03T18:05:38.651Z,10.00
2018-03-03T18:08:12.647Z,10.13
2018-03-03T18:10:47.679Z,9.83
2018-03-03T18:13:37.861Z,10.03
2018-03-03T18:16:11.551Z,9.90
2018-03-03T18:18:47.230Z,10.33
2018-03-03T18:21:22.250Z,10.30
2018-03-03T18:23:58.524Z,10.47
2018-03-03T18:26:32.341Z,11.03
2018-03-03T18:29:10.100Z,10.93
2018-03-03T18:31:44.648Z,10.90
2018-03-03T18:34:19.171Z,11.77
2018-03-03T18:36:53.058Z,12.40
2018-03-03T18:39:30.548Z,14.43
2018-03-03T18:42:05.552Z,13.37
2018-03-03T18:44:39.539Z,12.90
2018-03-03T18:47:16.051Z,12.77
2018-03-03T18:49:49.777Z,12.40
2018-03-03T18:52:23.576Z,14.50
2018-03-03T18:54:59.223Z,13.00
2018-03-03T18:57:35.688Z,18.20
2018-03-03T19:00:10.216Z,15.03
2018-03-03T19:02:44.328Z,18.33
2018-03-03T19:05:19.465Z,22.83
2018-03-03T19:07:54.185Z,20.77
2018-03-03T19:10:30.750Z,23.33
2018-03-03T19:13:05.035Z,54.63
2018-03-03T19:15:42.735Z,21.67
2018-03-03T19:18:21.481Z,21.83
2018-03-03T19:20:58.565Z,22.00
2018-03-03T19:23:33.818Z,21.63
2018-03-03T19:26:09.228Z,20.57
2018-03-03T19:28:43.069Z,23.23
2018-03-03T19:31:17.872Z,23.17
2018-03-03T19:33:52.777Z,24.20
2018-03-03T19:36:26.727Z,24.27
2018-03-03T19:39:01.016Z,24.37
2018-03-03T19:41:34.747Z,23.93
2018-03-03T19:44:09.662Z,24.30
2018-03-03T19:46:46.752Z,23.33
2018-03-03T19:49:23.119Z,24.07
2018-03-03T19:51:58.984Z,22.77
2018-03-03T19:54:32.975Z,20.53
2018-03-03T19:57:08.127Z,20.27
2018-03-03T19:59:42.844Z,19.57
2018-03-03T20:02:19.200Z,20.00
2018-03-03T20:04:54.136Z,19.67
2018-03-03T20:07:27.948Z,18.90
2018-03-03T20:10:03.717Z,19.30
2018-03-03T20:12:39.229Z,19.80
2018-03-03T20:15:14.370Z,20.37
2018-03-03T20:17:49.301Z,17.40
2018-03-03T20:20:24.026Z,20.23
2018-03-03T20:22:59.762Z,31.87
2018-03-03T20:25:33.736Z,25.73
2018-03-03T20:28:09.225Z,22.97
2018-03-03T20:30:44.052Z,25.03
2018-03-03T20:33:20.284Z,29.00
2018-03-03T20:35:55.273Z,30.03
2018-03-03T20:38:30.500Z,31.57
2018-03-03T20:41:05.837Z,29.83
2018-03-03T20:43:39.841Z,31.30
2018-03-03T20:46:13.650Z,30.80
2018-03-03T20:48:56.252Z,30.93
2018-03-03T20:51:37.319Z,29.27
2018-03-03T20:54:11.329Z,33.37
2018-03-03T20:56:47.695Z,35.87
2018-03-03T20:59:21.602Z,35.27
2018-03-03T21:01:58.621Z,33.53
2018-03-03T21:04:32.301Z,33.03
2018-03-03T21:07:07.526Z,34.53
2018-03-03T21:09:42.166Z,34.83
2018-03-03T21:25:40.022Z,32.70
2018-03-03T21:28:14.534Z,33.87
2018-03-03T21:30:49.566Z,36.37
2018-03-03T21:33:24.744Z,38.23
2018-03-03T21:35:59.102Z,38.20
2018-03-03T21:38:34.975Z,39.27
2018-03-03T21:41:09.989Z,39.63
2018-03-03T21:43:45.562Z,42.53
2018-03-03T21:46:20.177Z,40.03
2018-03-03T21:48:55.807Z,42.80
2018-03-03T21:51:29.730Z,43.80
2018-03-03T21:54:03.945Z,44.10
2018-03-03T21:56:37.966Z,44.43
2018-03-03T21:59:12.461Z,44.03
2018-03-03T22:01:47.041Z,45.37
2018-03-03T22:04:21.202Z,45.70
2018-03-03T22:06:57.373Z,44.00
2018-03-03T22:09:40.660Z,46.17
2018-03-03T22:12:21.020Z,45.43
2018-03-03T22:14:54.965Z,43.80
2018-03-03T22:17:29.061Z,43.53
2018-03-03T22:20:03.269Z,44.60
2018-03-03T22:22:38.120Z,43.77
2018-03-03T22:25:12.422Z,44.50
2018-03-03T22:27:48.587Z,43.83
2018-03-03T22:30:22.393Z,44.30
2018-03-03T22:32:57.323Z,43.63
2018-03-03T22:35:31.322Z,44.20
2018-03-03T22:38:07.075Z,44.40
2018-03-03T22:40:42.235Z,44.27
2018-03-03T22:43:16.638Z,45.60
2018-03-03T22:45:51.054Z,44.77
2018-03-03T22:48:26.612Z,47.90
2018-03-03T22:51:01.524Z,48.07
2018-03-03T22:53:36.971Z,45.70
2018-03-03T22:56:11.491Z,46.10
2018-03-03T22:58:45.988Z,45.07
2018-03-03T23:01:21.668Z,47.57
2018-03-03T23:03:56.675Z,46.03
2018-03-03T23:06:31.124Z,43.00
2018-03-03T23:09:07.513Z,45.70
2018-03-03T23:11:42.305Z,46.80
2018-03-03T23:14:18.360Z,47.80
2018-03-03T23:16:52.176Z,50.77
2018-03-03T23:19:27.913Z,47.47
2018-03-03T23:22:01.722Z,45.90
2018-03-03T23:24:36.968Z,48.60
2018-03-03T23:27:11.683Z,50.53
2018-03-03T23:29:46.645Z,49.73
2018-03-03T23:32:20.312Z,50.30
2018-03-03T23:34:55.771Z,49.33
2018-03-03T23:37:30.375Z,47.03
2018-03-03T23:40:04.486Z,49.03
2018-03-03T23:42:39.018Z,51.40
2018-03-03T23:45:13.910Z,48.03
2018-03-03T23:47:49.697Z,48.57
2018-03-03T23:50:24.053Z,53.37
2018-03-03T23:52:58.842Z,50.63
2018-03-03T23:55:33.588Z,50.47
2018-03-03T23:58:08.291Z,49.87
